Time;durP1;ratioP1;P1;durP2;ratioP2;P2;SDS_P1;SDS_P2;PMS_P1;PMS_P2;Temp;Humidity;BMP_temperature;BMP_pressure;BME280_temperature;BME280_humidity;BME280_pressure;Samples;Min_cycle;Max_cycle;Signal;HPM_P1;HPM_P2
2023/01/09 00:00:00;;;;;;;12.30;3.57;;;8.80;99.90;;;;;;5049561;28;20225;-76
2023/01/09 00:02:27;;;;;;;12.20;3.73;;;8.80;99.90;;;;;;5060597;28;20208;-76
2023/01/09 00:04:54;;;;;;;11.07;3.37;;;8.80;99.90;;;;;;5051412;28;20236;-76
2023/01/09 00:07:21;;;;;;;15.67;4.70;;;8.80;99.90;;;;;;5049503;28;20670;-77
2023/01/09 00:09:48;;;;;;;14.07;4.07;;;8.80;99.90;;;;;;5048837;28;20220;-76
2023/01/09 00:12:15;;;;;;;13.27;3.87;;;8.80;99.90;;;;;;5034240;28;20585;-77
2023/01/09 00:14:42;;;;;;;12.30;3.73;;;8.80;99.90;;;;;;5050651;28;20310;-77
2023/01/09 00:17:10;;;;;;;13.10;3.83;;;8.80;99.90;;;;;;5054769;28;20212;-77
2023/01/09 00:19:37;;;;;;;11.90;3.73;;;8.80;99.90;;;;;;5048744;28;20236;-77
2023/01/09 00:22:05;;;;;;;11.53;3.50;;;8.80;99.90;;;;;;5047523;28;20271;-77
2023/01/09 00:24:32;;;;;;;12.23;3.83;;;8.80;99.90;;;;;;5048563;28;20304;-77
2023/01/09 00:26:59;;;;;;;9.77;3.23;;;8.80;99.90;;;;;;5053695;28;20205;-77
2023/01/09 00:29:26;;;;;;;11.87;3.43;;;8.80;99.90;;;;;;5029335;28;20229;-76
2023/01/09 00:31:53;;;;;;;11.77;4.10;;;8.70;99.90;;;;;;5046556;28;20207;-77
2023/01/09 00:34:21;;;;;;;8.67;2.50;;;8.80;99.90;;;;;;5053862;28;20201;-77
2023/01/09 00:36:53;;;;;;;12.70;3.70;;;8.80;99.90;;;;;;5049186;28;20215;-77
2023/01/09 00:39:20;;;;;;;10.60;3.30;;;8.70;99.90;;;;;;5054299;28;21006;-77
2023/01/09 00:41:51;;;;;;;13.77;3.43;;;8.70;99.90;;;;;;5052357;28;20212;-77
2023/01/09 00:44:22;;;;;;;17.97;4.87;;;8.70;99.90;;;;;;5053043;28;20716;-77
2023/01/09 00:46:53;;;;;;;14.30;3.63;;;8.70;99.90;;;;;;5048888;28;20208;-77
2023/01/09 00:49:22;;;;;;;11.93;3.53;;;8.60;99.90;;;;;;5053200;28;20221;-77
2023/01/09 00:51:49;;;;;;;11.87;3.53;;;8.60;99.90;;;;;;5043844;28;20227;-77
2023/01/09 00:54:18;;;;;;;11.27;3.20;;;8.60;99.90;;;;;;5044182;28;20618;-77
2023/01/09 00:56:45;;;;;;;9.90;3.17;;;8.70;99.90;;;;;;5032906;28;20308;-77
2023/01/09 00:59:12;;;;;;;12.83;3.37;;;8.50;99.90;;;;;;5053533;28;20209;-78
2023/01/09 01:01:39;;;;;;;11.20;3.10;;;8.70;99.90;;;;;;5043534;28;20212;-77
2023/01/09 01:09:33;;;;;;;11.80;3.33;;;8.60;99.90;;;;;;5060982;28;20315;-78
2023/01/09 01:12:05;;;;;;;9.77;2.87;;;8.60;99.90;;;;;;5047553;28;20213;-77
2023/01/09 01:14:33;;;;;;;7.97;2.50;;;8.60;99.90;;;;;;5057895;28;20208;-77
2023/01/09 01:17:00;;;;;;;10.87;3.13;;;8.50;99.90;;;;;;5047757;28;20239;-77
2023/01/09 01:19:27;;;;;;;11.47;3.20;;;8.50;99.90;;;;;;5044314;28;20228;-76
2023/01/09 01:21:55;;;;;;;8.40;2.70;;;8.40;99.90;;;;;;5045057;28;20208;-76
2023/01/09 01:24:22;;;;;;;13.77;3.77;;;8.40;99.90;;;;;;5045223;28;20212;-76
2023/01/09 01:26:49;;;;;;;10.13;3.03;;;8.40;99.90;;;;;;5052472;28;20196;-77
2023/01/09 01:29:16;;;;;;;9.00;2.60;;;8.40;99.90;;;;;;5051350;28;20815;-77
2023/01/09 01:31:43;;;;;;;10.77;3.00;;;8.30;99.90;;;;;;5052838;28;20220;-78
2023/01/09 01:34:10;;;;;;;11.37;3.07;;;8.30;99.90;;;;;;5048616;28;20216;-76
2023/01/09 01:36:36;;;;;;;10.47;3.10;;;8.30;99.90;;;;;;5027966;28;20202;-77
2023/01/09 01:39:05;;;;;;;12.33;3.33;;;8.30;99.90;;;;;;5053860;28;20208;-77
2023/01/09 01:41:32;;;;;;;10.30;2.90;;;8.40;99.90;;;;;;5051795;28;20721;-78
2023/01/09 01:44:02;;;;;;;11.53;3.30;;;8.40;99.90;;;;;;5057342;28;20862;-76
2023/01/09 01:46:31;;;;;;;12.50;3.30;;;8.40;99.90;;;;;;5050839;28;20227;-77
2023/01/09 01:49:02;;;;;;;10.00;2.87;;;8.40;99.90;;;;;;5051758;28;20211;-76
2023/01/09 01:51:33;;;;;;;9.40;2.83;;;8.40;99.90;;;;;;5052801;28;20213;-77
2023/01/09 01:54:06;;;;;;;11.63;3.07;;;8.40;99.90;;;;;;5055915;28;20862;-76
2023/01/09 01:56:39;;;;;;;10.60;2.97;;;8.40;99.90;;;;;;5060506;28;20216;-77
2023/01/09 01:59:13;;;;;;;11.13;3.20;;;8.40;99.90;;;;;;5057151;28;20212;-77
2023/01/09 02:01:42;;;;;;;11.27;2.93;;;8.40;99.90;;;;;;5056792;28;20207;-77
2023/01/09 02:04:10;;;;;;;9.93;2.90;;;8.40;99.90;;;;;;5054400;28;20220;-77
2023/01/09 02:06:37;;;;;;;8.90;2.63;;;8.90;99.90;;;;;;5052837;28;20220;-77
2023/01/09 02:09:07;;;;;;;13.03;3.37;;;8.40;99.90;;;;;;5055721;28;20298;-77
2023/01/09 02:11:34;;;;;;;12.27;3.37;;;8.40;99.90;;;;;;5053508;28;20208;-77
2023/01/09 02:14:02;;;;;;;17.37;4.97;;;8.40;99.90;;;;;;5047046;28;20216;-77
2023/01/09 02:16:41;;;;;;;12.53;3.60;;;8.40;99.90;;;;;;5049470;28;20197;-77
2023/01/09 02:19:24;;;;;;;10.43;2.90;;;8.40;99.90;;;;;;5049313;28;20212;-77
2023/01/09 02:22:02;;;;;;;9.30;2.80;;;9.10;99.90;;;;;;5050169;28;20232;-78
2023/01/09 02:24:54;;;;;;;10.73;3.33;;;8.40;99.90;;;;;;5051877;28;20227;-78
2023/01/09 02:28:03;;;;;;;9.33;2.90;;;8.30;99.90;;;;;;5061409;28;20224;-77
2023/01/09 02:30:40;;;;;;;10.37;3.13;;;8.30;99.90;;;;;;5058523;28;20228;-76
2023/01/09 02:33:31;;;;;;;15.67;4.93;;;8.20;99.90;;;;;;5049507;28;20211;-76
2023/01/09 02:36:08;;;;;;;9.40;2.90;;;8.20;99.90;;;;;;5043893;28;20699;-77
2023/01/09 02:38:48;;;;;;;10.40;3.07;;;8.20;99.90;;;;;;5054870;28;20207;-77
2023/01/09 02:41:18;;;;;;;9.70;2.90;;;8.10;99.90;;;;;;5059635;28;20229;-77
2023/01/09 02:43:45;;;;;;;15.07;4.17;;;8.10;99.90;;;;;;5048970;28;20610;-76
2023/01/09 02:46:22;;;;;;;12.50;3.37;;;8.00;99.90;;;;;;5057384;28;20236;-77
2023/01/09 02:48:52;;;;;;;12.63;3.73;;;7.90;99.90;;;;;;5046276;28;20288;-77
2023/01/09 02:51:26;;;;;;;12.23;3.50;;;7.80;99.90;;;;;;5048625;28;20240;-77
2023/01/09 02:54:20;;;;;;;12.50;3.30;;;7.80;99.90;;;;;;5048928;28;20211;-77
2023/01/09 02:56:58;;;;;;;16.17;3.97;;;7.80;99.90;;;;;;5055304;28;20204;-77
2023/01/09 02:59:32;;;;;;;14.20;3.60;;;7.90;99.90;;;;;;5057778;28;20232;-77
2023/01/09 03:02:16;;;;;;;11.97;3.50;;;7.90;99.90;;;;;;5057258;28;20743;-77
2023/01/09 03:04:52;;;;;;;11.90;3.53;;;8.00;99.90;;;;;;5047752;28;20205;-77
2023/01/09 03:07:25;;;;;;;13.50;3.43;;;8.00;99.90;;;;;;5051710;28;20704;-78
2023/01/09 03:10:00;;;;;;;13.73;3.20;;;8.00;99.90;;;;;;5049243;28;20228;-78
2023/01/09 03:12:31;;;;;;;12.93;3.50;;;8.10;99.90;;;;;;5050499;28;20221;-78
2023/01/09 03:15:01;;;;;;;14.33;3.77;;;8.10;99.90;;;;;;5052836;28;20218;-78
2023/01/09 03:17:33;;;;;;;11.33;3.27;;;8.10;99.90;;;;;;5052589;28;20218;-80
2023/01/09 03:20:02;;;;;;;12.53;3.43;;;8.10;99.90;;;;;;5050957;28;20225;-79
2023/01/09 03:22:29;;;;;;;13.23;3.53;;;8.10;99.90;;;;;;5054262;28;20219;-79
2023/01/09 03:24:56;;;;;;;15.90;3.60;;;8.10;99.90;;;;;;5061372;28;20215;-78
2023/01/09 03:27:23;;;;;;;11.83;3.33;;;8.10;99.90;;;;;;5052096;28;20223;-77
2023/01/09 03:29:52;;;;;;;11.20;3.30;;;8.10;99.90;;;;;;5057262;28;20317;-78
2023/01/09 03:32:19;;;;;;;13.30;3.67;;;8.00;99.90;;;;;;5048517;28;20204;-77
2023/01/09 03:34:47;;;;;;;10.93;3.27;;;7.90;99.90;;;;;;5049352;28;20209;-79
2023/01/09 03:37:14;;;;;;;12.93;3.93;;;7.70;99.90;;;;;;5048941;28;20671;-80
2023/01/09 03:39:42;;;;;;;13.27;3.90;;;7.60;99.90;;;;;;5056722;28;20220;-77
2023/01/09 03:42:09;;;;;;;14.70;4.07;;;7.50;99.90;;;;;;5050413;28;20205;-77
2023/01/09 03:44:36;;;;;;;14.47;3.87;;;7.30;99.90;;;;;;5056662;28;20219;-77
2023/01/09 03:47:03;;;;;;;15.40;4.30;;;7.20;99.90;;;;;;5048585;28;20213;-79
2023/01/09 03:49:30;;;;;;;13.13;4.00;;;7.20;99.90;;;;;;5054007;28;20759;-77
2023/01/09 03:51:58;;;;;;;16.93;4.60;;;7.10;99.90;;;;;;5054330;28;20325;-79
2023/01/09 03:54:25;;;;;;;13.77;4.10;;;7.00;99.90;;;;;;5056097;28;20686;-79
2023/01/09 03:56:52;;;;;;;15.73;4.23;;;6.90;99.90;;;;;;5054264;28;20717;-78
2023/01/09 03:59:18;;;;;;;17.50;4.20;;;6.90;99.90;;;;;;5051594;28;20919;-78
2023/01/09 04:01:45;;;;;;;17.63;4.50;;;6.80;99.90;;;;;;5048009;28;20261;-78
2023/01/09 04:04:12;;;;;;;17.47;4.83;;;6.70;99.90;;;;;;5047919;28;20212;-78
2023/01/09 04:06:39;;;;;;;15.20;4.40;;;6.70;99.90;;;;;;5047794;28;20225;-78
2023/01/09 04:09:07;;;;;;;17.87;4.60;;;6.50;99.90;;;;;;5053069;28;20308;-77
2023/01/09 04:11:34;;;;;;;16.37;4.47;;;6.50;99.90;;;;;;5052595;28;20206;-77
2023/01/09 04:14:01;;;;;;;14.10;4.87;;;7.00;99.90;;;;;;5057619;28;20195;-79
2023/01/09 04:16:28;;;;;;;15.20;4.60;;;6.40;99.90;;;;;;5053880;28;20214;-76
2023/01/09 04:18:55;;;;;;;15.17;4.47;;;6.30;99.90;;;;;;5056355;28;20581;-76
2023/01/09 04:21:22;;;;;;;17.53;5.03;;;6.30;99.90;;;;;;5054555;28;20328;-77
2023/01/09 04:23:49;;;;;;;16.83;4.30;;;6.30;99.90;;;;;;5056114;28;20221;-76
2023/01/09 04:26:17;;;;;;;16.93;4.57;;;6.20;99.90;;;;;;5054395;28;20234;-76
2023/01/09 04:28:44;;;;;;;14.93;4.80;;;6.20;99.90;;;;;;5053842;28;20214;-75
2023/01/09 04:31:12;;;;;;;18.20;4.37;;;6.20;99.90;;;;;;5034763;28;20233;-75
2023/01/09 04:33:39;;;;;;;18.83;4.63;;;6.10;99.90;;;;;;5055506;28;20225;-75
2023/01/09 04:36:06;;;;;;;17.53;4.67;;;6.10;99.90;;;;;;5047135;28;20228;-75
2023/01/09 04:38:33;;;;;;;18.27;4.30;;;6.10;99.90;;;;;;5051927;28;20257;-75
2023/01/09 04:41:00;;;;;;;11.63;3.43;;;6.00;99.90;;;;;;5050806;28;20233;-75
2023/01/09 04:43:28;;;;;;;14.53;4.30;;;6.00;99.90;;;;;;5060116;28;20238;-76
2023/01/09 04:45:55;;;;;;;16.87;4.63;;;6.00;99.90;;;;;;5053793;28;20211;-76
2023/01/09 04:48:22;;;;;;;14.87;4.33;;;5.90;99.90;;;;;;5047362;28;20206;-76
2023/01/09 04:50:49;;;;;;;16.60;4.67;;;5.90;99.90;;;;;;5052345;28;20238;-76
2023/01/09 04:53:16;;;;;;;20.90;5.13;;;5.80;99.90;;;;;;5049576;28;20215;-76
2023/01/09 04:55:43;;;;;;;16.13;4.37;;;5.80;99.90;;;;;;5051170;28;20224;-76
2023/01/09 04:58:10;;;;;;;17.83;4.70;;;5.80;99.90;;;;;;5052299;28;20204;-76
2023/01/09 05:00:38;;;;;;;12.30;3.97;;;5.70;99.90;;;;;;5051976;28;20233;-76
2023/01/09 05:03:05;;;;;;;13.37;4.10;;;5.80;99.90;;;;;;5045201;28;20852;-76
2023/01/09 05:05:32;;;;;;;15.30;4.17;;;5.80;99.90;;;;;;5051848;28;20665;-76
2023/01/09 05:07:59;;;;;;;17.10;4.27;;;5.90;99.90;;;;;;5048171;28;20631;-76
2023/01/09 05:10:26;;;;;;;15.30;3.90;;;6.00;99.90;;;;;;5049478;28;20736;-76
2023/01/09 05:12:52;;;;;;;13.83;3.97;;;6.10;99.90;;;;;;5050290;28;20203;-76
2023/01/09 05:15:20;;;;;;;14.73;4.10;;;6.20;99.90;;;;;;5049441;28;20686;-76
2023/01/09 05:17:48;;;;;;;16.23;4.10;;;6.40;99.90;;;;;;5048037;28;20708;-77
2023/01/09 05:20:15;;;;;;;13.67;3.53;;;6.50;99.90;;;;;;5058295;28;20258;-77
2023/01/09 05:22:42;;;;;;;11.80;3.17;;;6.60;99.90;;;;;;5053376;28;20231;-77
2023/01/09 05:25:10;;;;;;;13.97;3.63;;;6.70;99.90;;;;;;5055037;28;20205;-77
2023/01/09 05:27:37;;;;;;;16.13;3.90;;;6.80;99.90;;;;;;5050070;28;20281;-77
2023/01/09 05:30:04;;;;;;;12.23;3.43;;;6.90;99.90;;;;;;5055548;28;20235;-77
2023/01/09 05:32:31;;;;;;;18.83;4.17;;;7.00;99.90;;;;;;5049355;28;20618;-77
2023/01/09 05:35:00;;;;;;;17.40;4.03;;;7.10;99.90;;;;;;5056508;28;20208;-77
2023/01/09 05:37:27;;;;;;;22.70;4.53;;;7.20;99.90;;;;;;5053416;28;20205;-77
2023/01/09 05:39:54;;;;;;;18.97;3.83;;;7.30;99.90;;;;;;5049405;28;20260;-77
2023/01/09 05:42:21;;;;;;;15.00;3.93;;;7.30;99.90;;;;;;5051598;28;20208;-76
2023/01/09 05:44:48;;;;;;;14.73;3.90;;;7.40;99.90;;;;;;5049301;28;20600;-75
2023/01/09 05:47:14;;;;;;;15.33;4.07;;;7.40;99.90;;;;;;5049637;28;20414;-75
2023/01/09 05:49:41;;;;;;;14.17;3.20;;;7.50;99.90;;;;;;5061688;28;20234;-76
2023/01/09 05:52:10;;;;;;;13.60;3.77;;;6.90;99.90;;;;;;5050440;28;20219;-76
2023/01/09 05:54:36;;;;;;;14.37;3.33;;;7.50;99.90;;;;;;5047244;28;20754;-76
2023/01/09 05:57:03;;;;;;;18.77;4.27;;;7.60;99.90;;;;;;5052740;28;20655;-77
2023/01/09 05:59:30;;;;;;;13.07;3.30;;;7.60;99.90;;;;;;5050706;28;20235;-77
2023/01/09 06:01:57;;;;;;;12.50;3.20;;;7.60;99.90;;;;;;5051747;28;20215;-76
2023/01/09 06:04:28;;;;;;;15.80;4.27;;;7.60;99.90;;;;;;5055352;28;20219;-77
2023/01/09 06:06:55;;;;;;;15.93;3.80;;;7.70;99.90;;;;;;5050922;28;20221;-76
2023/01/09 06:09:23;;;;;;;13.43;4.00;;;7.70;99.90;;;;;;5034626;28;20233;-76
2023/01/09 06:11:50;;;;;;;14.73;4.30;;;7.70;99.90;;;;;;5055123;28;20230;-77
2023/01/09 06:14:17;;;;;;;15.97;3.83;;;7.70;99.90;;;;;;5057722;28;20212;-76
2023/01/09 06:16:44;;;;;;;17.30;3.73;;;7.80;99.90;;;;;;5045881;28;20212;-76
2023/01/09 06:19:11;;;;;;;15.27;3.70;;;7.80;99.90;;;;;;5049723;28;20194;-76
2023/01/09 06:21:38;;;;;;;16.87;3.77;;;7.80;99.90;;;;;;5056422;28;20200;-76
2023/01/09 06:24:06;;;;;;;15.93;3.83;;;7.80;99.90;;;;;;5060077;28;20228;-76
2023/01/09 06:26:34;;;;;;;13.03;3.60;;;7.80;99.90;;;;;;5054738;28;20233;-76
2023/01/09 06:29:01;;;;;;;16.10;3.70;;;7.80;99.90;;;;;;5057784;28;20201;-76
2023/01/09 06:31:28;;;;;;;15.40;3.87;;;7.80;99.90;;;;;;5049903;28;20216;-76
2023/01/09 06:33:55;;;;;;;14.80;3.90;;;7.80;99.90;;;;;;5047250;28;20201;-77
2023/01/09 06:36:23;;;;;;;17.20;3.97;;;7.80;99.90;;;;;;5049953;28;20204;-76
2023/01/09 06:38:50;;;;;;;13.77;3.80;;;7.80;99.90;;;;;;5056758;28;20211;-76
2023/01/09 06:41:17;;;;;;;14.23;3.60;;;7.90;99.90;;;;;;5049367;28;20627;-76
2023/01/09 06:43:46;;;;;;;18.07;4.07;;;7.90;99.90;;;;;;5053319;28;20211;-76
2023/01/09 06:46:12;;;;;;;15.43;3.77;;;7.90;99.90;;;;;;5048242;28;20229;-77
2023/01/09 06:48:39;;;;;;;16.17;4.10;;;7.90;99.90;;;;;;5055259;28;20583;-76
2023/01/09 06:51:06;;;;;;;21.27;4.20;;;7.90;99.90;;;;;;5047427;28;20246;-77
2023/01/09 06:53:33;;;;;;;15.50;3.70;;;7.90;99.90;;;;;;5051787;28;20208;-77
2023/01/09 06:56:01;;;;;;;16.77;4.27;;;7.90;99.90;;;;;;5045788;28;20237;-77
2023/01/09 06:58:28;;;;;;;13.93;3.77;;;8.00;99.90;;;;;;5046423;28;20204;-76
2023/01/09 07:00:58;;;;;;;16.10;4.23;;;8.00;99.90;;;;;;5054067;28;20235;-76
2023/01/09 07:03:26;;;;;;;15.30;3.67;;;8.00;99.90;;;;;;5055540;28;20664;-76
2023/01/09 07:05:53;;;;;;;14.83;3.97;;;8.00;99.90;;;;;;5052157;28;20209;-76
2023/01/09 07:08:20;;;;;;;15.93;4.07;;;8.10;99.90;;;;;;5049601;28;20197;-76
2023/01/09 07:10:46;;;;;;;13.10;3.63;;;8.20;99.90;;;;;;5045990;28;20239;-78
2023/01/09 07:13:14;;;;;;;14.33;4.10;;;8.20;99.90;;;;;;5055403;28;20227;-76
2023/01/09 07:15:41;;;;;;;16.47;3.80;;;8.20;99.90;;;;;;5053516;28;20205;-76
2023/01/09 07:18:10;;;;;;;12.83;3.33;;;8.20;99.90;;;;;;5054886;28;20204;-78
2023/01/09 07:20:40;;;;;;;13.00;3.13;;;8.30;99.90;;;;;;5053690;28;20228;-77
2023/01/09 07:23:07;;;;;;;13.57;3.33;;;8.30;99.90;;;;;;5048924;28;20284;-77
2023/01/09 07:25:34;;;;;;;10.70;3.10;;;8.30;99.90;;;;;;5046690;28;20219;-77
2023/01/09 07:28:01;;;;;;;14.50;3.73;;;8.30;99.90;;;;;;5052417;28;20240;-78
2023/01/09 07:30:27;;;;;;;13.90;3.73;;;8.30;99.90;;;;;;5032044;28;20236;-77
2023/01/09 07:32:54;;;;;;;15.43;4.03;;;8.30;99.90;;;;;;5051373;28;20227;-76
2023/01/09 07:35:23;;;;;;;20.80;3.87;;;8.30;99.90;;;;;;5053952;28;20205;-76
2023/01/09 07:37:49;;;;;;;10.97;3.20;;;8.30;99.90;;;;;;5054053;28;20306;-76
2023/01/09 07:40:17;;;;;;;16.57;4.10;;;8.30;99.90;;;;;;5045334;28;20235;-76
2023/01/09 07:42:44;;;;;;;17.20;3.73;;;8.30;99.90;;;;;;5056804;28;20211;-76
2023/01/09 07:45:11;;;;;;;15.77;3.50;;;8.30;99.90;;;;;;5046348;28;20209;-76
2023/01/09 07:47:40;;;;;;;14.37;3.77;;;8.30;99.90;;;;;;5046063;28;20225;-77
2023/01/09 07:50:08;;;;;;;15.53;4.40;;;8.30;99.90;;;;;;5044876;28;20233;-76
2023/01/09 07:52:37;;;;;;;16.27;4.63;;;8.30;99.90;;;;;;5044535;28;20205;-76
2023/01/09 07:55:04;;;;;;;35.53;6.77;;;8.30;99.90;;;;;;5019168;28;20217;-76
2023/01/09 07:57:31;;;;;;;40.67;7.67;;;8.30;99.90;;;;;;5051044;28;20211;-77
2023/01/09 07:59:59;;;;;;;20.03;4.50;;;8.30;99.90;;;;;;5042073;28;20308;-78
2023/01/09 08:02:27;;;;;;;19.20;4.47;;;8.30;99.90;;;;;;5042317;28;20265;-76
2023/01/09 08:04:53;;;;;;;18.57;4.17;;;8.20;99.90;;;;;;5039921;28;20212;-76
2023/01/09 08:07:20;;;;;;;12.87;4.10;;;8.30;99.90;;;;;;5043244;28;20607;-73
2023/01/09 08:09:49;;;;;;;10.70;3.20;;;8.30;99.90;;;;;;5028914;28;20273;-73
2023/01/09 08:12:16;;;;;;;12.77;3.50;;;8.30;99.90;;;;;;5045299;28;20213;-73
2023/01/09 08:14:43;;;;;;;11.30;3.23;;;8.30;99.90;;;;;;5047927;28;20694;-73
2023/01/09 08:17:10;;;;;;;13.33;4.07;;;8.30;99.90;;;;;;5048037;28;20281;-74
2023/01/09 08:19:37;;;;;;;8.93;3.30;;;8.30;99.90;;;;;;5026160;28;20232;-74
2023/01/09 08:22:04;;;;;;;11.20;3.70;;;8.40;99.90;;;;;;5043407;28;20206;-75
2023/01/09 08:24:31;;;;;;;12.57;3.30;;;8.40;99.90;;;;;;5048121;28;20224;-75
2023/01/09 08:26:59;;;;;;;16.97;4.00;;;8.40;99.90;;;;;;5044736;28;20220;-75
2023/01/09 08:32:08;;;;;;;12.40;3.63;;;8.50;99.90;;;;;;5245442;22;20221;-74
2023/01/09 08:34:35;;;;;;;10.87;2.87;;;8.50;99.90;;;;;;5047912;28;20211;-74
2023/01/09 08:37:02;;;;;;;9.17;2.87;;;8.60;99.90;;;;;;5045725;28;20211;-75
2023/01/09 08:39:29;;;;;;;14.27;3.87;;;8.60;99.90;;;;;;5046916;28;20224;-74
2023/01/09 08:47:32;;;;;;;10.97;2.57;;;8.70;99.90;;;;;;5036475;28;20229;-75
2023/01/09 08:49:59;;;;;;;9.53;3.27;;;8.70;99.90;;;;;;5023860;28;20317;-74
2023/01/09 08:52:29;;;;;;;15.07;3.80;;;8.70;99.90;;;;;;5034081;28;20220;-74
2023/01/09 08:54:56;;;;;;;8.20;2.60;;;8.70;99.90;;;;;;5020777;28;20212;-75
2023/01/09 08:57:23;;;;;;;10.03;3.10;;;8.60;99.90;;;;;;5010285;28;20199;-75
2023/01/09 08:59:51;;;;;;;11.93;3.00;;;8.60;99.90;;;;;;5018759;28;20746;-73
2023/01/09 09:02:18;;;;;;;16.67;2.57;;;8.50;99.90;;;;;;5021979;28;20232;-75
2023/01/09 09:04:46;;;;;;;11.87;3.10;;;8.50;99.90;;;;;;5034383;28;20209;-76
2023/01/09 09:07:13;;;;;;;13.87;3.90;;;8.50;99.90;;;;;;5033805;28;20240;-76
2023/01/09 09:09:40;;;;;;;13.27;3.57;;;8.50;99.90;;;;;;5042933;28;20228;-75
2023/01/09 09:12:07;;;;;;;11.63;3.20;;;8.50;99.90;;;;;;5033307;28;20201;-76
2023/01/09 09:17:20;;;;;;;9.07;3.10;;;8.40;99.90;;;;;;5038106;28;20281;-75
2023/01/09 09:19:47;;;;;;;12.07;3.33;;;8.70;99.90;;;;;;5015236;28;20226;-75
2023/01/09 09:22:14;;;;;;;10.43;3.13;;;8.50;99.90;;;;;;5024092;28;20206;-75
2023/01/09 09:24:41;;;;;;;15.30;4.73;;;8.50;99.90;;;;;;5043761;28;20572;-75
2023/01/09 09:27:08;;;;;;;13.87;3.33;;;8.60;99.90;;;;;;5015988;28;20252;-74
2023/01/09 09:29:35;;;;;;;18.03;3.93;;;8.60;99.90;;;;;;5038438;28;20213;-75
2023/01/09 09:32:02;;;;;;;12.23;3.43;;;8.70;99.90;;;;;;5033969;28;20334;-75
2023/01/09 09:34:31;;;;;;;11.37;3.30;;;8.70;99.90;;;;;;5038104;28;20223;-75
2023/01/09 09:36:58;;;;;;;8.73;2.43;;;8.70;99.90;;;;;;5015107;28;20299;-75
2023/01/09 09:45:28;;;;;;;11.40;3.50;;;8.90;99.90;;;;;;5091082;28;20259;-73
2023/01/09 09:48:07;;;;;;;11.27;3.50;;;9.00;99.90;;;;;;5069024;28;20231;-73
2023/01/09 09:51:02;;;;;;;12.70;4.57;;;9.00;99.90;;;;;;5094931;28;20222;-72
2023/01/09 09:53:33;;;;;;;9.90;4.87;;;9.00;99.90;;;;;;5076216;28;20737;-73
2023/01/09 09:56:01;;;;;;;12.63;4.27;;;9.00;99.90;;;;;;5089112;28;20218;-73
2023/01/09 09:58:34;;;;;;;12.97;4.43;;;9.00;99.90;;;;;;5090303;28;20205;-73
2023/01/09 10:01:02;;;;;;;11.73;4.00;;;9.00;99.90;;;;;;5089930;28;20667;-74
2023/01/09 10:03:34;;;;;;;14.20;4.27;;;9.00;99.90;;;;;;5093264;28;20215;-73
2023/01/09 10:06:08;;;;;;;8.73;2.87;;;9.00;99.90;;;;;;5096475;28;20204;-74
2023/01/09 10:08:45;;;;;;;12.37;3.87;;;9.00;99.90;;;;;;5072951;28;20331;-74
2023/01/09 10:11:18;;;;;;;11.57;3.93;;;9.10;99.90;;;;;;5077135;28;20241;-74
2023/01/09 10:16:39;;;;;;;12.50;3.73;;;9.20;99.90;;;;;;5095426;28;20203;-73
2023/01/09 10:19:18;;;;;;;10.70;3.23;;;9.40;99.90;;;;;;5086868;28;20290;-72
2023/01/09 10:21:57;;;;;;;12.57;3.10;;;9.50;99.90;;;;;;5089773;28;20296;-73
2023/01/09 10:24:40;;;;;;;9.23;3.13;;;9.50;99.90;;;;;;5089657;28;20816;-73
2023/01/09 10:27:17;;;;;;;7.40;2.60;;;9.70;99.90;;;;;;5087920;28;20211;-73
2023/01/09 10:30:02;;;;;;;9.60;3.20;;;9.80;99.90;;;;;;5092482;28;20293;-73
2023/01/09 10:32:51;;;;;;;10.50;3.10;;;9.80;99.90;;;;;;5093364;28;20204;-75
2023/01/09 10:35:31;;;;;;;10.03;3.20;;;9.90;99.90;;;;;;5096869;28;20199;-73
2023/01/09 10:38:02;;;;;;;12.67;3.37;;;9.90;99.90;;;;;;5086907;28;20843;-73
2023/01/09 10:40:34;;;;;;;10.80;3.30;;;9.80;99.90;;;;;;5086813;28;20316;-74
2023/01/09 10:43:07;;;;;;;11.20;3.20;;;9.80;99.90;;;;;;5091210;28;20203;-74
2023/01/09 10:45:40;;;;;;;9.30;3.37;;;9.80;99.90;;;;;;5090828;28;20616;-74
2023/01/09 10:48:19;;;;;;;10.13;3.00;;;9.80;99.90;;;;;;5084379;28;20225;-74
2023/01/09 10:50:50;;;;;;;9.97;3.07;;;9.90;99.90;;;;;;5087508;28;20225;-73
2023/01/09 10:53:21;;;;;;;13.50;3.20;;;9.90;99.90;;;;;;5089889;28;20234;-74
2023/01/09 10:55:50;;;;;;;9.47;2.90;;;9.90;99.90;;;;;;5091902;28;20715;-74
2023/01/09 10:58:19;;;;;;;8.13;2.73;;;10.00;99.90;;;;;;5083663;28;20393;-74
2023/01/09 11:00:47;;;;;;;10.13;3.33;;;10.00;99.90;;;;;;5088408;28;20222;-72
2023/01/09 11:03:15;;;;;;;10.27;3.40;;;10.10;99.90;;;;;;5083642;28;20204;-72
2023/01/09 11:05:43;;;;;;;11.23;3.23;;;10.20;99.90;;;;;;5096594;28;20690;-74
2023/01/09 11:08:21;;;;;;;12.10;3.43;;;10.20;99.90;;;;;;5089556;28;20219;-74
2023/01/09 11:10:52;;;;;;;10.30;3.37;;;10.20;99.90;;;;;;5086800;28;20227;-75
2023/01/09 11:13:21;;;;;;;11.17;3.30;;;10.30;99.90;;;;;;5096079;28;20207;-74
2023/01/09 11:16:03;;;;;;;14.77;3.73;;;10.30;99.90;;;;;;5089235;28;20253;-75
2023/01/09 11:18:30;;;;;;;8.53;3.13;;;10.70;99.90;;;;;;5091777;28;20213;-75
2023/01/09 11:21:12;;;;;;;13.80;3.37;;;10.20;99.90;;;;;;5087433;28;20235;-74
2023/01/09 11:23:41;;;;;;;10.77;3.20;;;10.10;99.90;;;;;;5098654;28;20206;-75
2023/01/09 11:26:23;;;;;;;11.17;3.50;;;10.00;99.90;;;;;;5105928;28;20188;-74
2023/01/09 11:29:07;;;;;;;10.23;3.50;;;10.00;99.90;;;;;;5088263;28;20293;-74
2023/01/09 11:31:34;;;;;;;9.97;3.50;;;9.90;99.90;;;;;;5087615;28;20272;-75
2023/01/09 11:34:02;;;;;;;16.73;3.77;;;9.90;99.90;;;;;;5088480;28;20236;-74
2023/01/09 11:36:30;;;;;;;10.63;3.27;;;9.90;99.90;;;;;;5090678;28;20692;-76
2023/01/09 11:38:59;;;;;;;9.53;2.87;;;9.90;99.90;;;;;;5090610;28;20206;-74
2023/01/09 11:41:30;;;;;;;11.30;3.70;;;9.90;99.90;;;;;;5085130;28;20212;-74
2023/01/09 11:43:59;;;;;;;6.87;2.60;;;9.90;99.90;;;;;;5099620;28;20207;-74
2023/01/09 11:46:36;;;;;;;11.83;4.00;;;9.90;99.90;;;;;;5062611;28;20218;-74
2023/01/09 11:49:05;;;;;;;10.40;3.77;;;9.90;99.90;;;;;;5092244;28;20215;-73
2023/01/09 11:51:34;;;;;;;10.73;3.63;;;9.90;99.90;;;;;;5089897;28;20226;-74
2023/01/09 11:54:19;;;;;;;13.63;3.63;;;9.90;99.90;;;;;;5092040;28;20259;-74
2023/01/09 11:56:49;;;;;;;11.07;3.33;;;9.90;99.90;;;;;;5086113;28;20212;-77
2023/01/09 11:59:18;;;;;;;11.43;3.90;;;9.80;99.90;;;;;;5084898;28;20231;-73
2023/01/09 12:02:06;;;;;;;10.73;3.13;;;9.80;99.90;;;;;;5088341;28;20254;-73
2023/01/09 12:04:37;;;;;;;9.40;3.10;;;9.80;99.90;;;;;;5067923;28;20208;-73
2023/01/09 12:07:34;;;;;;;13.17;3.83;;;9.90;99.90;;;;;;5079630;28;20208;-72
2023/01/09 12:10:16;;;;;;;11.40;3.67;;;9.90;99.90;;;;;;5079901;28;20228;-73
2023/01/09 12:12:55;;;;;;;13.47;4.77;;;9.90;99.90;;;;;;5077145;28;20238;-73
2023/01/09 12:15:28;;;;;;;24.30;9.93;;;10.00;99.90;;;;;;5085945;28;20664;-74
2023/01/09 12:18:22;;;;;;;19.53;7.70;;;10.00;99.90;;;;;;5087859;28;20203;-74
2023/01/09 12:21:15;;;;;;;11.77;4.33;;;10.20;99.90;;;;;;5085719;28;20215;-74
2023/01/09 12:24:00;;;;;;;11.33;3.63;;;10.10;99.90;;;;;;5063690;28;20227;-74
2023/01/09 12:26:32;;;;;;;9.73;3.33;;;10.10;99.90;;;;;;5087766;28;20213;-74
2023/01/09 12:29:24;;;;;;;9.27;3.40;;;10.00;99.90;;;;;;5083739;28;20219;-74
2023/01/09 12:32:17;;;;;;;9.60;3.13;;;9.90;99.90;;;;;;5069872;28;20576;-74
2023/01/09 12:34:58;;;;;;;9.13;3.07;;;10.00;99.90;;;;;;5090503;28;20203;-74
2023/01/09 12:37:52;;;;;;;11.60;3.13;;;9.90;99.90;;;;;;5098111;28;20222;-74
2023/01/09 12:40:34;;;;;;;16.50;4.33;;;9.70;99.90;;;;;;5092467;28;20233;-74
2023/01/09 12:43:12;;;;;;;12.10;4.07;;;9.60;99.90;;;;;;5068409;28;20896;-73
2023/01/09 12:45:51;;;;;;;12.23;4.20;;;9.50;99.90;;;;;;5097159;28;20226;-74
2023/01/09 12:48:33;;;;;;;9.03;3.30;;;9.40;99.90;;;;;;5091605;28;20221;-75
2023/01/09 12:51:14;;;;;;;11.37;4.00;;;9.40;99.90;;;;;;5098549;28;20221;-75
2023/01/09 12:53:43;;;;;;;14.07;4.63;;;9.30;99.90;;;;;;5067935;28;20207;-75
2023/01/09 12:56:14;;;;;;;12.17;4.30;;;9.30;99.90;;;;;;5097518;28;20206;-74
2023/01/09 12:58:46;;;;;;;12.53;4.10;;;9.30;99.90;;;;;;5065839;28;20212;-74
2023/01/09 13:01:18;;;;;;;8.33;2.97;;;9.30;99.90;;;;;;5092264;28;20223;-74
2023/01/09 13:03:51;;;;;;;10.03;3.60;;;9.40;99.90;;;;;;5093067;28;20264;-74
2023/01/09 13:06:21;;;;;;;9.70;3.93;;;9.50;99.90;;;;;;5091371;28;20203;-74
2023/01/09 13:08:52;;;;;;;8.37;3.23;;;9.50;99.90;;;;;;5088843;28;20310;-73
2023/01/09 13:11:27;;;;;;;11.20;3.93;;;9.60;99.90;;;;;;5087874;28;20231;-74
2023/01/09 13:13:58;;;;;;;11.63;3.40;;;9.60;99.90;;;;;;5094521;28;20205;-74
2023/01/09 13:16:32;;;;;;;10.70;3.97;;;9.60;99.90;;;;;;5084631;28;20887;-73
2023/01/09 13:19:06;;;;;;;10.83;3.67;;;9.60;99.90;;;;;;5083752;28;20254;-73
2023/01/09 13:21:33;;;;;;;10.83;3.47;;;9.60;99.90;;;;;;5092546;28;20211;-74
2023/01/09 13:24:07;;;;;;;12.30;3.77;;;9.50;99.90;;;;;;5085803;28;20253;-75
2023/01/09 13:26:39;;;;;;;14.33;4.20;;;9.50;99.90;;;;;;5085094;28;20204;-73
2023/01/09 13:29:12;;;;;;;13.10;3.40;;;9.60;99.90;;;;;;5084175;28;20238;-73